Time;durP1;ratioP1;P1;durP2;ratioP2;P2;SDS_P1;SDS_P2;PMS_P1;PMS_P2;Temp;Humidity;BMP_temperature;BMP_pressure;BME280_temperature;BME280_humidity;BME280_pressure;Samples;Min_cycle;Max_cycle;Signal;HPM_P1;HPM_P2
2021/01/02 00:01:18;;;;;;;28.63;15.75;;;179.80;1868.80;;;;;;5054387;28;20422;-67
2021/01/02 00:03:47;;;;;;;25.73;14.98;;;179.80;1868.80;;;;;;5054172;28;20498;-67
2021/01/02 00:06:28;;;;;;;25.20;14.80;;;179.80;1868.80;;;;;;5053992;28;20045;-67
2021/01/02 00:09:16;;;;;;;26.60;14.18;;;179.80;1868.80;;;;;;5054200;28;20025;-67
2021/01/02 00:15:12;;;;;;;27.65;15.57;;;179.80;1868.80;;;;;;5054119;28;20569;-67
2021/01/02 00:18:01;;;;;;;25.73;15.07;;;179.80;1868.80;;;;;;5054069;28;20021;-67
2021/01/02 00:31:01;;;;;;;22.52;12.55;;;179.80;1868.80;;;;;;5053791;28;20040;-67
2021/01/02 00:33:53;;;;;;;21.45;12.45;;;179.80;1843.20;;;;;;5053889;28;20028;-67
2021/01/02 00:46:39;;;;;;;21.05;12.32;;;179.80;1868.80;;;;;;5053550;28;20036;-68
2021/01/02 00:49:08;;;;;;;21.77;13.20;;;179.80;1843.20;;;;;;5053637;28;20382;-68
2021/01/02 06:11:21;;;;;;;16.58;9.65;;;154.30;1843.20;;;;;;4991232;28;20137;-69
2021/01/02 06:13:49;;;;;;;16.95;8.80;;;154.20;1843.20;;;;;;5015936;28;20482;-70
2021/01/02 06:16:16;;;;;;;16.08;9.30;;;154.30;1843.20;;;;;;5016618;28;20030;-70
2021/01/02 06:18:43;;;;;;;15.23;8.85;;;154.20;1817.60;;;;;;5016546;28;20324;-70
2021/01/02 06:21:14;;;;;;;18.48;9.73;;;154.30;1843.20;;;;;;5016357;28;20360;-70
2021/01/02 06:23:41;;;;;;;16.85;9.73;;;154.30;1817.60;;;;;;5016294;28;20109;-69
2021/01/02 06:26:12;;;;;;;16.88;10.55;;;154.30;1843.20;;;;;;5016488;28;20030;-69
2021/01/02 06:28:44;;;;;;;14.68;9.50;;;154.30;1817.60;;;;;;5016388;28;20030;-70
2021/01/02 06:31:17;;;;;;;17.80;10.63;;;154.30;1817.60;;;;;;5016163;28;20038;-69
2021/01/02 06:33:46;;;;;;;14.65;9.63;;;154.30;1817.60;;;;;;5016282;28;20042;-69
2021/01/02 06:36:28;;;;;;;17.33;9.68;;;154.30;1817.60;;;;;;5016225;28;20041;-68
2021/01/02 06:39:18;;;;;;;21.65;10.85;;;154.30;1894.40;;;;;;5015349;28;20030;-69
2021/01/02 06:41:44;;;;;;;20.77;9.15;;;154.40;1868.80;;;;;;5016126;28;20041;-69
2021/01/02 06:44:10;;;;;;;14.90;9.75;;;154.30;1843.20;;;;;;5016095;28;20479;-70
2021/01/02 06:46:37;;;;;;;17.42;10.18;;;154.30;1843.20;;;;;;5016140;28;20125;-70
2021/01/02 06:49:33;;;;;;;18.70;10.80;;;154.30;1843.20;;;;;;4998201;28;20419;-69
2021/01/02 06:51:58;;;;;;;19.33;10.65;;;154.30;1843.20;;;;;;5015945;28;20040;-69
2021/01/02 06:54:24;;;;;;;18.27;11.23;;;154.30;1843.20;;;;;;5015671;28;20477;-70
2021/01/02 06:57:10;;;;;;;20.27;12.25;;;154.30;1843.20;;;;;;5015995;28;20105;-70
2021/01/02 06:59:36;;;;;;;21.80;12.55;;;154.30;1843.20;;;;;;5015507;28;20041;-69
2021/01/02 07:02:01;;;;;;;21.08;11.85;;;154.30;1843.20;;;;;;5016137;28;20383;-69
2021/01/02 07:04:37;;;;;;;17.95;10.85;;;154.30;1843.20;;;;;;5015877;28;20033;-69
2021/01/02 07:07:05;;;;;;;17.55;10.68;;;154.30;1843.20;;;;;;5015731;28;20026;-69
2021/01/02 07:09:31;;;;;;;15.48;9.32;;;154.30;1843.20;;;;;;5015537;28;20051;-69
2021/01/02 07:12:08;;;;;;;18.38;9.82;;;154.30;1843.20;;;;;;5015245;28;20448;-69
2021/01/02 07:14:34;;;;;;;15.07;8.82;;;154.40;1945.60;;;;;;5015387;28;20022;-70
2021/01/02 07:17:03;;;;;;;20.00;9.45;;;154.40;1894.40;;;;;;4997485;28;20067;-69
2021/01/02 07:19:39;;;;;;;23.15;10.25;;;154.40;1868.80;;;;;;4997989;28;20026;-69
2021/01/02 07:22:21;;;;;;;17.88;9.95;;;154.50;1868.80;;;;;;5015606;28;20026;-70
2021/01/02 07:25:10;;;;;;;23.17;11.00;;;154.50;1868.80;;;;;;5015151;28;20057;-70
2021/01/02 07:27:38;;;;;;;18.80;9.85;;;154.50;1843.20;;;;;;5015211;28;20022;-71
2021/01/02 07:30:12;;;;;;;21.25;10.77;;;154.50;1868.80;;;;;;5015093;28;20029;-70
2021/01/02 07:32:43;;;;;;;21.52;11.82;;;179.20;1920.00;;;;;;5012545;28;20108;-71
2021/01/02 07:35:09;;;;;;;22.35;12.27;;;179.20;1868.80;;;;;;5014861;28;20026;-71
2021/01/02 07:37:37;;;;;;;24.08;12.50;;;179.30;1868.80;;;;;;5015198;28;20036;-70
2021/01/02 07:40:04;;;;;;;19.05;9.82;;;179.30;1868.80;;;;;;5015083;28;20032;-69
2021/01/02 07:42:33;;;;;;;17.70;9.48;;;179.40;1868.80;;;;;;5014936;28;20030;-71
2021/01/02 07:45:14;;;;;;;178.43;17.88;;;179.40;1868.80;;;;;;5015546;28;20072;-70
2021/01/02 07:47:46;;;;;;;68.95;11.68;;;179.40;1868.80;;;;;;5014850;28;20033;-69
2021/01/02 07:50:14;;;;;;;31.52;10.23;;;179.50;1894.40;;;;;;4997536;28;20029;-69
2021/01/02 07:52:51;;;;;;;31.38;11.85;;;179.50;1868.80;;;;;;5015071;28;20033;-70
2021/01/02 07:55:24;;;;;;;33.78;14.25;;;179.60;1868.80;;;;;;5014567;28;20030;-70
2021/01/02 07:57:49;;;;;;;29.98;13.63;;;179.60;1868.80;;;;;;5014607;28;20045;-70
2021/01/02 08:00:15;;;;;;;24.67;13.35;;;179.60;1868.80;;;;;;5014695;28;20467;-70
2021/01/02 08:02:42;;;;;;;28.25;13.40;;;179.70;1868.80;;;;;;5014816;28;20463;-69
2021/01/02 08:05:09;;;;;;;30.45;14.40;;;179.70;1868.80;;;;;;5014223;28;20030;-70
2021/01/02 08:07:35;;;;;;;24.45;12.60;;;179.80;1868.80;;;;;;5014318;28;20073;-69
2021/01/02 08:10:00;;;;;;;23.70;11.23;;;179.80;1868.80;;;;;;5013996;28;20030;-72
2021/01/02 08:12:26;;;;;;;24.30;11.23;;;179.80;1868.80;;;;;;5014496;28;20054;-71
2021/01/02 08:14:52;;;;;;;21.83;11.07;;;179.90;1868.80;;;;;;5014658;28;20029;-73
2021/01/02 08:17:19;;;;;;;25.98;11.13;;;179.90;1868.80;;;;;;5014346;28;20042;-70
2021/01/02 08:19:47;;;;;;;22.90;11.48;;;180.10;1920.00;;;;;;5014448;28;20021;-70
2021/01/02 08:22:37;;;;;;;16.92;8.98;;;204.80;1868.80;;;;;;5014545;28;20104;-70
2021/01/02 08:25:16;;;;;;;13.60;7.53;;;204.80;1868.80;;;;;;5014277;28;20041;-69
2021/01/02 08:27:42;;;;;;;11.45;6.20;;;204.80;1817.60;;;;;;5014373;28;20033;-69
2021/01/02 08:30:10;;;;;;;12.25;7.10;;;205.00;1843.20;;;;;;5014268;28;20061;-74
2021/01/02 08:32:56;;;;;;;13.20;6.97;;;205.10;1868.80;;;;;;5014230;28;20026;-70
2021/01/02 08:35:34;;;;;;;26.15;10.95;;;205.20;1817.60;;;;;;5010114;28;20046;-73
2021/01/02 08:38:05;;;;;;;13.57;8.02;;;205.30;1792.00;;;;;;5013205;28;20021;-71
2021/01/02 08:40:40;;;;;;;15.98;7.22;;;205.50;1766.40;;;;;;5013151;28;20551;-73
2021/01/02 08:43:06;;;;;;;11.35;6.18;;;205.60;1766.40;;;;;;5012627;28;20080;-71
2021/01/02 08:45:39;;;;;;;10.00;5.97;;;230.40;1766.40;;;;;;5012775;28;20117;-69
2021/01/02 08:48:10;;;;;;;9.50;5.93;;;230.50;1740.80;;;;;;5013187;28;20054;-74
2021/01/02 08:50:39;;;;;;;12.93;6.10;;;230.60;1740.80;;;;;;5012718;28;20064;-70
2021/01/02 08:53:05;;;;;;;8.75;5.75;;;230.80;1740.80;;;;;;5013140;28;20026;-70
2021/01/02 08:55:31;;;;;;;10.63;6.13;;;231.00;1715.20;;;;;;5013104;28;20033;-74
2021/01/02 08:57:57;;;;;;;14.73;9.15;;;231.10;1715.20;;;;;;5012714;28;20025;-74
2021/01/02 09:00:29;;;;;;;8.95;6.30;;;231.30;1689.60;;;;;;4995317;28;20057;-70
2021/01/02 09:02:55;;;;;;;13.20;6.70;;;256.00;1689.60;;;;;;5014350;28;20407;-71
2021/01/02 09:05:29;;;;;;;12.15;6.25;;;256.20;1689.60;;;;;;5016660;28;20018;-70
2021/01/02 09:07:59;;;;;;;10.35;7.25;;;256.40;1689.60;;;;;;5017315;28;20034;-71
2021/01/02 09:10:29;;;;;;;15.68;9.32;;;256.50;1638.40;;;;;;5016688;28;20104;-73
2021/01/02 09:12:59;;;;;;;17.05;8.00;;;256.70;1638.40;;;;;;5016571;28;20073;-69
2021/01/02 09:16:01;;;;;;;9.65;6.88;;;256.80;1612.80;;;;;;5016821;28;20037;-70
2021/01/02 09:18:30;;;;;;;11.23;8.23;;;281.60;1638.40;;;;;;5016485;28;20069;-70
2021/01/02 09:21:17;;;;;;;7.72;5.20;;;281.70;1612.80;;;;;;5016383;28;20026;-70
2021/01/02 09:23:43;;;;;;;9.75;5.50;;;281.80;1587.20;;;;;;5016729;28;20022;-74
2021/01/02 09:26:20;;;;;;;8.30;5.07;;;281.90;1587.20;;;;;;5016580;28;20051;-74
2021/01/02 09:28:46;;;;;;;9.02;5.25;;;282.10;1587.20;;;;;;5016364;28;20029;-70
2021/01/02 09:31:12;;;;;;;9.68;4.53;;;282.20;1561.60;;;;;;5016660;28;20097;-70
2021/01/02 09:33:38;;;;;;;14.70;5.25;;;282.30;1561.60;;;;;;5016748;28;20494;-70
2021/01/02 09:36:04;;;;;;;10.05;5.80;;;282.40;1587.20;;;;;;5016134;28;20026;-74
2021/01/02 09:38:30;;;;;;;10.88;5.80;;;282.50;1561.60;;;;;;4998830;28;20487;-70
2021/01/02 09:40:56;;;;;;;10.35;6.10;;;307.20;1587.20;;;;;;5016367;28;20030;-72
2021/01/02 09:43:22;;;;;;;7.80;5.18;;;307.30;1587.20;;;;;;5016063;28;20044;-71
2021/01/02 09:45:48;;;;;;;13.45;6.13;;;307.40;1587.20;;;;;;5016520;28;20383;-70
2021/01/02 09:48:14;;;;;;;10.80;5.90;;;307.60;1561.60;;;;;;5016401;28;20022;-69
2021/01/02 09:50:41;;;;;;;35.33;8.27;;;307.70;1587.20;;;;;;5015777;28;20483;-70
2021/01/02 09:53:08;;;;;;;13.38;6.68;;;307.80;1536.00;;;;;;5016522;28;20101;-70
2021/01/02 09:55:34;;;;;;;8.52;5.60;;;307.90;1536.00;;;;;;5016057;28;20022;-72
2021/01/02 09:58:00;;;;;;;17.60;6.00;;;308.00;1536.00;;;;;;5015687;28;20057;-71
2021/01/02 10:00:27;;;;;;;21.30;7.05;;;332.80;1587.20;;;;;;5016090;28;20061;-70
2021/01/02 10:02:57;;;;;;;17.00;7.30;;;333.00;1561.60;;;;;;5016014;28;20088;-69
2021/01/02 10:05:24;;;;;;;16.55;8.68;;;333.00;1536.00;;;;;;5015595;28;20045;-72
2021/01/02 10:07:50;;;;;;;14.25;8.70;;;333.00;1510.40;;;;;;4998223;28;20382;-72
2021/01/02 10:10:18;;;;;;;13.95;6.78;;;333.10;1536.00;;;;;;5015460;28;20030;-71
2021/01/02 10:12:45;;;;;;;15.55;8.95;;;333.10;1484.80;;;;;;5015521;28;20586;-70
2021/01/02 10:15:12;;;;;;;16.17;6.25;;;333.20;1510.40;;;;;;5015610;28;20108;-71
2021/01/02 10:17:38;;;;;;;55.58;8.23;;;333.30;1484.80;;;;;;5015955;28;20022;-70
2021/01/02 10:20:05;;;;;;;33.92;7.82;;;333.40;1510.40;;;;;;5014932;28;20022;-70
2021/01/02 10:22:31;;;;;;;26.33;9.85;;;333.60;1484.80;;;;;;5015098;28;20501;-72
2021/01/02 10:24:57;;;;;;;18.95;9.15;;;333.70;1484.80;;;;;;5015546;28;20026;-74
2021/01/02 10:27:24;;;;;;;16.73;8.80;;;358.40;1459.20;;;;;;5015192;28;20033;-69
2021/01/02 10:29:52;;;;;;;23.73;10.40;;;358.40;1433.60;;;;;;5015506;28;20463;-69
2021/01/02 10:32:19;;;;;;;21.90;8.25;;;358.50;1433.60;;;;;;5015563;28;20049;-69
2021/01/02 10:34:45;;;;;;;29.42;6.47;;;358.50;1433.60;;;;;;5015177;28;20376;-68
2021/01/02 10:37:12;;;;;;;16.27;6.68;;;358.60;1433.60;;;;;;5015374;28;20036;-69
2021/01/02 10:39:39;;;;;;;13.55;6.55;;;358.60;1433.60;;;;;;5015065;28;20105;-68
2021/01/02 10:42:05;;;;;;;17.70;7.07;;;358.70;1433.60;;;;;;5014963;28;20022;-69
2021/01/02 10:44:31;;;;;;;23.48;11.27;;;358.80;1408.00;;;;;;5015458;28;20053;-69
2021/01/02 10:46:59;;;;;;;19.33;7.75;;;358.90;1408.00;;;;;;5015630;28;20112;-69
2021/01/02 10:49:25;;;;;;;21.98;7.47;;;359.00;1433.60;;;;;;5014682;28;20032;-72
2021/01/02 10:51:51;;;;;;;19.42;8.02;;;359.00;1382.40;;;;;;5015090;28;20034;-69
2021/01/02 10:54:18;;;;;;;36.65;9.85;;;359.00;1382.40;;;;;;5015017;28;20490;-69
2021/01/02 10:56:49;;;;;;;24.67;11.30;;;359.00;1382.40;;;;;;5014586;28;20498;-70
2021/01/02 10:59:16;;;;;;;12.90;5.95;;;359.00;1382.40;;;;;;5014957;28;20387;-69
2021/01/02 11:01:47;;;;;;;7.80;5.00;;;358.90;1382.40;;;;;;5015065;28;20034;-69
2021/01/02 11:04:14;;;;;;;9.77;4.43;;;358.90;1382.40;;;;;;5014535;28;20030;-70
2021/01/02 11:06:43;;;;;;;15.80;5.47;;;358.90;1382.40;;;;;;5014513;28;20037;-69
2021/01/02 11:09:13;;;;;;;13.60;7.32;;;358.90;1382.40;;;;;;5014730;28;20026;-69
2021/01/02 11:11:40;;;;;;;19.23;9.15;;;358.90;1382.40;;;;;;5014100;28;20064;-70
2021/01/02 11:14:06;;;;;;;16.92;9.13;;;359.00;1382.40;;;;;;5013525;28;20026;-69
2021/01/02 11:16:33;;;;;;;16.60;9.88;;;359.00;1382.40;;;;;;5014315;28;20037;-69
2021/01/02 11:18:59;;;;;;;13.13;7.53;;;359.00;1382.40;;;;;;5014223;28;20036;-70
2021/01/02 11:21:26;;;;;;;17.05;9.07;;;359.00;1382.40;;;;;;5014688;28;20030;-69
2021/01/02 11:23:52;;;;;;;13.23;7.50;;;359.00;1356.80;;;;;;5014584;28;20105;-69
2021/01/02 11:26:18;;;;;;;13.95;8.10;;;359.10;1356.80;;;;;;5013703;28;20030;-69
2021/01/02 11:28:44;;;;;;;15.18;7.90;;;359.10;1356.80;;;;;;5014450;28;20088;-69
2021/01/02 11:31:11;;;;;;;9.52;5.63;;;359.10;1356.80;;;;;;5014291;28;20479;-69
2021/01/02 11:33:37;;;;;;;24.08;7.43;;;359.00;1331.20;;;;;;4995994;28;20088;-69
2021/01/02 11:36:04;;;;;;;19.92;6.60;;;359.00;1356.80;;;;;;5013082;28;20026;-69
2021/01/02 11:38:30;;;;;;;10.88;6.18;;;359.00;1356.80;;;;;;5012746;28;20109;-69
2021/01/02 11:40:55;;;;;;;10.80;5.82;;;359.00;1356.80;;;;;;5012435;28;20041;-69
2021/01/02 11:43:21;;;;;;;11.90;5.68;;;358.90;1356.80;;;;;;5012866;28;20052;-69
2021/01/02 11:45:49;;;;;;;9.77;6.30;;;358.90;1356.80;;;;;;5012900;28;20084;-69
2021/01/02 11:48:16;;;;;;;14.88;7.03;;;358.90;1356.80;;;;;;5012607;28;20014;-69
2021/01/02 11:50:42;;;;;;;13.32;7.72;;;358.90;1356.80;;;;;;5012839;28;20041;-69
2021/01/02 11:53:09;;;;;;;15.98;7.95;;;359.00;1382.40;;;;;;5012914;28;20010;-69
2021/01/02 11:55:35;;;;;;;17.05;9.27;;;359.00;1382.40;;;;;;5011931;28;20364;-70
2021/01/02 11:58:02;;;;;;;17.30;9.40;;;359.00;1382.40;;;;;;5012753;28;20109;-71
2021/01/02 12:00:30;;;;;;;17.45;8.30;;;359.00;1408.00;;;;;;5012225;28;20423;-70
2021/01/02 12:02:57;;;;;;;12.38;7.68;;;359.00;1382.40;;;;;;5012115;28;20121;-70
2021/01/02 12:05:23;;;;;;;14.35;8.20;;;359.00;1382.40;;;;;;5012692;28;20053;-70
2021/01/02 12:07:49;;;;;;;17.73;9.55;;;359.00;1408.00;;;;;;5012518;28;20056;-70
2021/01/02 12:10:16;;;;;;;16.77;9.63;;;359.00;1408.00;;;;;;5011971;28;20076;-70
2021/01/02 12:12:42;;;;;;;16.58;8.98;;;359.00;1382.40;;;;;;5012425;28;20096;-70
2021/01/02 12:15:08;;;;;;;17.70;8.35;;;359.00;1382.40;;;;;;5013207;28;20467;-70
2021/01/02 12:17:34;;;;;;;22.25;10.88;;;359.00;1408.00;;;;;;5013259;28;20076;-70
2021/01/02 12:20:00;;;;;;;54.50;23.77;;;359.00;1408.00;;;;;;5011397;28;20029;-69
2021/01/02 12:22:29;;;;;;;28.15;14.57;;;359.00;1408.00;;;;;;5013499;28;20029;-70
2021/01/02 12:24:55;;;;;;;26.45;14.38;;;359.00;1408.00;;;;;;5012924;28;20026;-70
2021/01/02 12:27:20;;;;;;;25.65;12.55;;;359.10;1408.00;;;;;;5011121;28;20105;-70
2021/01/02 12:29:46;;;;;;;34.10;15.07;;;359.00;1408.00;;;;;;5013237;28;20487;-70
2021/01/02 12:32:12;;;;;;;22.80;12.02;;;359.00;1408.00;;;;;;5011841;28;20567;-70
2021/01/02 12:34:40;;;;;;;24.52;12.43;;;358.90;1408.00;;;;;;5012094;28;20077;-70
2021/01/02 12:37:12;;;;;;;27.00;11.63;;;358.90;1408.00;;;;;;5011437;28;20394;-70
2021/01/02 12:39:39;;;;;;;19.05;9.48;;;358.90;1382.40;;;;;;5012914;28;20033;-70
2021/01/02 12:42:05;;;;;;;20.58;10.75;;;358.80;1382.40;;;;;;5012579;28;20494;-70
2021/01/02 12:44:31;;;;;;;19.55;10.05;;;358.80;1382.40;;;;;;5013015;28;20038;-71
2021/01/02 12:47:01;;;;;;;22.75;12.57;;;358.80;1382.40;;;;;;5012901;28;20026;-70
2021/01/02 12:49:30;;;;;;;26.10;11.52;;;358.70;1408.00;;;;;;5013289;28;20029;-71
2021/01/02 12:51:58;;;;;;;23.48;11.82;;;358.60;1408.00;;;;;;5013234;28;20382;-71
2021/01/02 12:54:24;;;;;;;19.73;11.40;;;358.60;1433.60;;;;;;5012510;28;20022;-72
2021/01/02 12:56:53;;;;;;;21.83;11.63;;;358.60;1433.60;;;;;;5012822;28;20030;-71
2021/01/02 12:59:30;;;;;;;20.30;10.65;;;358.60;1433.60;;;;;;5013483;28;20038;-70
2021/01/02 13:01:57;;;;;;;21.95;11.70;;;358.60;1433.60;;;;;;5012366;28;20116;-70
2021/01/02 13:04:24;;;;;;;22.13;10.35;;;358.60;1433.60;;;;;;5013336;28;20026;-71
2021/01/02 13:06:55;;;;;;;21.00;10.77;;;358.60;1408.00;;;;;;5013058;28;20022;-71
2021/01/02 13:09:22;;;;;;;21.52;11.70;;;358.60;1408.00;;;;;;5013030;28;20030;-71
2021/01/02 13:11:49;;;;;;;39.47;17.27;;;358.60;1382.40;;;;;;5012799;28;20045;-71
2021/01/02 13:14:16;;;;;;;27.42;13.65;;;358.70;1408.00;;;;;;5013050;28;20391;-71
2021/01/02 13:16:50;;;;;;;21.00;11.05;;;358.70;1408.00;;;;;;5012597;28;20510;-71
2021/01/02 13:19:16;;;;;;;19.23;8.95;;;358.60;1408.00;;;;;;5013033;28;20467;-71
2021/01/02 13:21:53;;;;;;;18.58;9.75;;;358.60;1408.00;;;;;;5012460;28;20041;-72
2021/01/02 13:24:20;;;;;;;18.73;10.35;;;358.60;1408.00;;;;;;5012555;28;20018;-72
2021/01/02 13:26:50;;;;;;;16.08;8.77;;;358.50;1408.00;;;;;;5011873;28;20037;-73
2021/01/02 13:29:18;;;;;;;14.18;8.40;;;358.50;1408.00;;;;;;5000765;28;20018;-72
2021/01/02 13:31:47;;;;;;;12.73;6.50;;;358.50;1408.00;;;;;;5012151;28;20045;-72
2021/01/02 13:34:14;;;;;;;20.02;11.52;;;358.40;1408.00;;;;;;5006003;28;20034;-72
2021/01/02 13:36:41;;;;;;;17.02;11.15;;;358.40;1433.60;;;;;;5011769;28;20399;-72
2021/01/02 13:39:09;;;;;;;13.68;9.23;;;358.40;1433.60;;;;;;4993821;28;20069;-72
2021/01/02 13:41:37;;;;;;;16.27;7.63;;;358.40;1459.20;;;;;;5012100;28;20022;-72
2021/01/02 13:44:04;;;;;;;17.33;7.95;;;333.70;1459.20;;;;;;5012146;28;20117;-72
2021/01/02 13:46:30;;;;;;;18.17;10.52;;;333.70;1459.20;;;;;;5012210;28;20026;-72
2021/01/02 13:48:55;;;;;;;29.45;15.02;;;333.60;1510.40;;;;;;5013767;28;20021;-73
2021/01/02 13:51:21;;;;;;;22.83;12.70;;;333.60;1510.40;;;;;;4996930;28;20505;-72
2021/01/02 13:53:47;;;;;;;29.02;15.18;;;333.60;1536.00;;;;;;5015951;28;20044;-72
2021/01/02 13:56:13;;;;;;;19.80;11.52;;;333.50;1536.00;;;;;;5015948;28;20022;-75
2021/01/02 13:58:39;;;;;;;17.90;10.57;;;333.50;1536.00;;;;;;5015910;28;20056;-73
2021/01/02 14:01:06;;;;;;;16.92;10.38;;;333.40;1561.60;;;;;;5015398;28;20060;-73
2021/01/02 14:03:32;;;;;;;19.48;11.35;;;333.40;1561.60;;;;;;5015734;28;20401;-73
2021/01/02 14:05:58;;;;;;;21.27;11.93;;;333.30;1561.60;;;;;;5016207;28;20037;-77
2021/01/02 14:08:24;;;;;;;18.65;10.57;;;333.30;1561.60;;;;;;5015552;28;20022;-73
2021/01/02 14:10:49;;;;;;;28.13;13.57;;;333.20;1561.60;;;;;;5015674;28;20089;-70
2021/01/02 14:13:15;;;;;;;15.52;9.38;;;333.20;1561.60;;;;;;5015981;28;20022;-75
2021/01/02 14:15:41;;;;;;;18.27;8.82;;;333.10;1561.60;;;;;;5015273;28;20410;-74
2021/01/02 14:18:07;;;;;;;22.13;10.68;;;333.00;1561.60;;;;;;5014887;28;20032;-71
2021/01/02 14:20:32;;;;;;;12.93;8.48;;;333.00;1561.60;;;;;;5014398;28;20030;-72
2021/01/02 14:22:58;;;;;;;16.45;9.20;;;332.90;1561.60;;;;;;5013645;28;20029;-73
2021/01/02 14:25:24;;;;;;;18.15;9.55;;;332.80;1561.60;;;;;;5014191;28;20026;-72
2021/01/02 14:27:50;;;;;;;16.73;10.18;;;332.80;1587.20;;;;;;5014197;28;20044;-72
2021/01/02 14:30:16;;;;;;;19.40;10.27;;;308.10;1536.00;;;;;;5015470;28;20038;-72
2021/01/02 14:32:42;;;;;;;13.95;8.07;;;307.90;1561.60;;;;;;5015186;28;20545;-72
2021/01/02 14:35:08;;;;;;;20.52;8.20;;;307.90;1561.60;;;;;;5014000;28;20064;-73
2021/01/02 14:37:34;;;;;;;16.65;10.25;;;307.90;1536.00;;;;;;5016260;28;20117;-72
2021/01/02 14:40:10;;;;;;;16.30;8.18;;;307.90;1587.20;;;;;;5264133;22;20061;-74
2021/01/02 14:42:35;;;;;;;14.85;8.50;;;307.90;1561.60;;;;;;5032162;28;20091;-72
2021/01/02 14:45:01;;;;;;;17.83;9.10;;;307.80;1561.60;;;;;;5016924;28;20425;-72
2021/01/02 14:47:27;;;;;;;17.88;7.82;;;307.70;1587.20;;;;;;5034076;28;20489;-73
2021/01/02 14:49:53;;;;;;;13.18;7.38;;;307.60;1587.20;;;;;;5034703;28;20021;-73
2021/01/02 14:52:18;;;;;;;11.98;6.68;;;307.60;1561.60;;;;;;5034938;28;20158;-73
2021/01/02 14:54:47;;;;;;;11.75;6.30;;;307.50;1561.60;;;;;;5033844;28;20032;-73
2021/01/02 14:57:13;;;;;;;10.13;6.15;;;307.40;1561.60;;;;;;5034380;28;20112;-73
2021/01/02 14:59:45;;;;;;;14.38;7.65;;;307.50;1561.60;;;;;;5034353;28;20109;-73
2021/01/02 15:02:12;;;;;;;17.48;7.10;;;307.40;1561.60;;;;;;5033949;28;20022;-72
2021/01/02 15:04:39;;;;;;;12.90;7.22;;;307.40;1561.60;;;;;;5034487;28;20036;-72
2021/01/02 15:07:05;;;;;;;14.00;7.38;;;307.30;1561.60;;;;;;5034620;28;20411;-72
2021/01/02 15:09:33;;;;;;;15.30;7.43;;;307.20;1561.60;;;;;;5034548;28;20039;-72
2021/01/02 15:12:08;;;;;;;19.60;8.32;;;307.20;1561.60;;;;;;5034139;28;20040;-72
2021/01/02 15:14:34;;;;;;;15.48;7.63;;;307.20;1587.20;;;;;;5034431;28;20379;-72
2021/01/02 15:17:00;;;;;;;13.68;7.65;;;282.50;1536.00;;;;;;5033936;28;20160;-72
2021/01/02 15:19:26;;;;;;;16.95;8.73;;;282.40;1561.60;;;;;;5034278;28;20518;-72
2021/01/02 15:21:51;;;;;;;14.88;9.40;;;282.40;1561.60;;;;;;5034334;28;20025;-72
2021/01/02 15:24:17;;;;;;;19.40;10.65;;;282.20;1561.60;;;;;;5034559;28;20029;-71
2021/01/02 15:26:43;;;;;;;26.33;13.65;;;282.30;1561.60;;;;;;5015921;28;20414;-71
2021/01/02 15:29:10;;;;;;;33.10;16.80;;;282.20;1561.60;;;;;;5016710;28;20056;-72
2021/01/02 15:31:41;;;;;;;43.05;21.60;;;282.20;1561.60;;;;;;5033756;28;20482;-72
2021/01/02 15:34:10;;;;;;;38.17;19.52;;;282.20;1587.20;;;;;;5033800;28;20156;-72
2021/01/02 15:36:41;;;;;;;32.08;16.90;;;282.20;1561.60;;;;;;5034005;28;20028;-72
2021/01/02 15:39:17;;;;;;;30.10;15.85;;;282.10;1561.60;;;;;;5034095;28;20049;-72
2021/01/02 15:41:44;;;;;;;26.30;13.48;;;282.10;1561.60;;;;;;5033647;28;20056;-72
2021/01/02 15:47:09;;;;;;;21.13;12.52;;;281.90;1587.20;;;;;;4953138;29;20178;-73
2021/01/02 15:49:35;;;;;;;31.48;15.38;;;281.90;1587.20;;;;;;4953490;29;20043;-73
2021/01/02 15:52:11;;;;;;;31.83;16.90;;;281.90;1587.20;;;;;;4953377;29;20043;-72
2021/01/02 15:54:37;;;;;;;32.53;18.00;;;281.80;1587.20;;;;;;4952490;29;20078;-72
2021/01/02 15:57:05;;;;;;;38.47;20.08;;;281.80;1587.20;;;;;;4953111;29;20027;-72
2021/01/02 15:59:30;;;;;;;32.22;15.68;;;281.80;1587.20;;;;;;4953471;29;20030;-72
2021/01/02 16:01:58;;;;;;;34.90;18.42;;;281.70;1587.20;;;;;;4952837;29;20110;-72
2021/01/02 16:04:25;;;;;;;35.42;17.95;;;281.70;1587.20;;;;;;4952964;29;20054;-73
2021/01/02 16:06:55;;;;;;;35.42;18.00;;;281.60;1587.20;;;;;;4953494;29;20031;-71
2021/01/02 16:09:21;;;;;;;35.20;18.90;;;281.60;1689.60;;;;;;4954018;29;20039;-72
2021/01/02 16:11:48;;;;;;;34.35;17.13;;;281.70;1689.60;;;;;;4953307;28;20050;-72
2021/01/02 16:14:17;;;;;;;32.10;16.50;;;281.70;1638.40;;;;;;4952489;29;20035;-72
2021/01/02 16:16:44;;;;;;;36.72;17.85;;;281.60;1612.80;;;;;;4952973;29;20039;-70
2021/01/02 16:19:12;;;;;;;35.75;16.98;;;281.60;1587.20;;;;;;4952714;29;20029;-71
2021/01/02 16:21:41;;;;;;;34.92;17.67;;;256.90;1561.60;;;;;;4954579;29;20062;-70
2021/01/02 16:24:08;;;;;;;34.13;17.45;;;256.90;1561.60;;;;;;4995148;28;20112;-71
2021/01/02 16:26:37;;;;;;;31.08;16.45;;;256.80;1561.60;;;;;;5033353;28;20047;-71
2021/01/02 16:29:03;;;;;;;24.15;13.13;;;256.80;1561.60;;;;;;5032001;28;20032;-70
2021/01/02 16:31:48;;;;;;;17.45;9.73;;;256.70;1536.00;;;;;;5032917;28;20497;-71
2021/01/02 16:34:17;;;;;;;19.83;10.63;;;256.60;1536.00;;;;;;5033188;28;20406;-71
2021/01/02 16:36:43;;;;;;;14.95;8.82;;;256.60;1561.60;;;;;;5032635;28;20034;-70
2021/01/02 16:39:09;;;;;;;20.67;8.77;;;256.60;1536.00;;;;;;5032704;28;20039;-71
2021/01/02 16:41:35;;;;;;;18.33;9.70;;;256.50;1561.60;;;;;;5033055;28;20076;-70
2021/01/02 16:44:01;;;;;;;17.52;8.38;;;256.40;1536.00;;;;;;5015361;28;20038;-70
2021/01/02 16:46:28;;;;;;;14.13;8.32;;;256.50;1561.60;;;;;;5032616;28;20025;-70
2021/01/02 16:48:57;;;;;;;18.52;10.95;;;256.40;1536.00;;;;;;5032957;28;20021;-70
2021/01/02 16:51:32;;;;;;;31.52;17.08;;;256.40;1561.60;;;;;;5032854;28;20033;-71
2021/01/02 16:53:58;;;;;;;33.47;18.58;;;256.30;1536.00;;;;;;5014811;28;20555;-70
2021/01/02 16:56:29;;;;;;;22.02;14.63;;;256.30;1536.00;;;;;;5032512;28;20025;-71
2021/01/02 16:58:59;;;;;;;19.08;12.43;;;256.30;1536.00;;;;;;5015107;28;20410;-71
2021/01/02 17:01:25;;;;;;;18.52;8.68;;;256.30;1536.00;;;;;;5032192;28;20037;-71
2021/01/02 17:03:54;;;;;;;14.07;8.50;;;256.30;1536.00;;;;;;5015045;28;20022;-71
2021/01/02 17:06:27;;;;;;;15.25;8.48;;;256.20;1536.00;;;;;;5032559;28;20494;-71
2021/01/02 17:08:55;;;;;;;10.88;6.97;;;256.20;1536.00;;;;;;5031585;28;20044;-71
2021/01/02 17:11:35;;;;;;;11.95;7.18;;;256.20;1536.00;;;;;;5031656;28;20490;-71
2021/01/02 17:14:02;;;;;;;16.88;9.30;;;256.20;1536.00;;;;;;5032327;28;20022;-71
2021/01/02 17:16:34;;;;;;;10.95;7.18;;;256.10;1536.00;;;;;;5031848;28;20032;-70
2021/01/02 17:19:01;;;;;;;12.15;6.85;;;256.10;1536.00;;;;;;5032882;28;20483;-71
2021/01/02 17:21:30;;;;;;;12.18;7.20;;;256.10;1536.00;;;;;;5032552;28;20082;-71
2021/01/02 17:23:56;;;;;;;11.50;6.35;;;256.10;1536.00;;;;;;5033175;28;20079;-71
2021/01/02 17:26:25;;;;;;;9.85;6.03;;;256.00;1536.00;;;;;;5018000;28;20458;-71
2021/01/02 17:28:51;;;;;;;13.82;5.95;;;256.00;1561.60;;;;;;5036441;28;20032;-69
2021/01/02 17:31:18;;;;;;;17.92;9.00;;;256.00;1587.20;;;;;;5035924;28;20040;-74
2021/01/02 17:33:45;;;;;;;17.13;7.30;;;256.30;1792.00;;;;;;5036272;28;20390;-71
2021/01/02 17:36:20;;;;;;;9.93;5.93;;;256.30;1638.40;;;;;;5036178;28;20025;-72
2021/01/02 17:38:46;;;;;;;17.75;7.18;;;256.20;1587.20;;;;;;5035939;28;20049;-71
2021/01/02 17:41:19;;;;;;;13.48;6.88;;;256.20;1561.60;;;;;;5035831;28;20049;-72
2021/01/02 17:43:45;;;;;;;10.80;6.75;;;256.10;1561.60;;;;;;5036013;28;20076;-71
2021/01/02 17:46:10;;;;;;;11.48;5.72;;;256.10;1561.60;;;;;;5036094;28;20025;-72
2021/01/02 17:48:37;;;;;;;11.02;6.60;;;256.00;1561.60;;;;;;5036535;28;20100;-71
2021/01/02 17:51:03;;;;;;;18.50;10.55;;;256.00;1561.60;;;;;;5035768;28;20048;-72
2021/01/02 17:53:28;;;;;;;22.50;13.23;;;256.00;1561.60;;;;;;5035915;28;20029;-73
2021/01/02 17:55:54;;;;;;;27.27;15.35;;;256.00;1561.60;;;;;;5035769;28;20060;-72
2021/01/02 17:58:20;;;;;;;26.33;15.18;;;256.00;1561.60;;;;;;5035357;28;20033;-71
2021/01/02 18:00:46;;;;;;;28.30;15.10;;;231.30;1561.60;;;;;;5035320;28;20017;-72